Terminal Aerodrome Forecast
Issued by NWS Jacksonville, FL

Home | Current Version | Previous Version | Text Only | Print | Product List | Glossary On
Versions: 1 2 3 4 5 6 7 8 9 10 11 12 13 14 15 16
000
FTUS42 KJAX 221100
TAFSSI
TAF
KSSI 221120Z 2212/2312 25005KT P6SM SCT250
     FM221400 30008KT P6SM FEW050 SCT250
     FM221800 13008KT P6SM SCT250=

USA.gov is the U.S. government's official web portal to all federal, state and local government web resources and services.